createdAt,value
2023-04-04T00:01:34.016Z,102943.03
2023-04-04T00:06:36.494Z,102938.94
2023-04-04T00:11:38.549Z,102940.75
2023-04-04T00:16:40.501Z,102945.59
2023-04-04T00:21:42.192Z,102948.44
2023-04-04T00:26:43.865Z,102946.00
2023-04-04T00:31:45.837Z,102935.94
2023-04-04T00:36:47.864Z,102940.75
2023-04-04T00:41:50.395Z,102937.88
2023-04-04T00:46:53.096Z,102933.47
2023-04-04T00:51:55.425Z,102924.13
2023-04-04T00:56:58.224Z,102920.09
2023-04-04T01:02:00.822Z,102916.41
2023-04-04T01:07:03.157Z,102925.56
2023-04-04T01:12:05.577Z,102919.16
2023-04-04T01:17:08.123Z,102923.25
2023-04-04T01:22:12.598Z,102913.13
2023-04-04T01:27:16.300Z,102923.44
2023-04-04T01:32:51.513Z,102915.41
2023-04-04T01:38:17.231Z,102917.88
2023-04-04T01:43:19.409Z,102924.97
2023-04-04T01:48:21.168Z,102925.56
2023-04-04T01:53:26.838Z,102926.94
2023-04-04T01:58:28.729Z,102925.47
2023-04-04T02:03:30.771Z,102921.66
2023-04-04T02:08:32.359Z,102923.19
2023-04-04T02:13:34.148Z,102910.59
2023-04-04T02:18:36.398Z,102907.28
2023-04-04T02:23:40.296Z,102910.53
2023-04-04T02:28:42.030Z,102913.91
2023-04-04T02:33:45.018Z,102920.06
2023-04-04T02:38:47.153Z,102907.44
2023-04-04T02:43:49.491Z,102906.47
2023-04-04T02:48:53.437Z,102915.78
2023-04-04T02:53:55.173Z,102913.44
2023-04-04T02:59:05.334Z,102909.66
2023-04-04T03:04:07.114Z,102906.75
2023-04-04T03:09:10.755Z,102906.00
2023-04-04T03:14:12.840Z,102898.78
2023-04-04T03:19:15.105Z,102901.50
2023-04-04T03:24:17.203Z,102903.84
2023-04-04T03:29:19.414Z,102907.56
2023-04-04T03:34:21.544Z,102908.16
2023-04-04T03:39:29.857Z,102909.72
2023-04-04T03:44:31.484Z,102915.00
2023-04-04T03:49:34.618Z,102920.34
2023-04-04T03:54:36.770Z,102915.91
2023-04-04T03:59:39.960Z,102914.97
2023-04-04T04:04:41.818Z,102900.91
2023-04-04T04:09:43.610Z,102907.34
2023-04-04T04:14:45.329Z,102910.44
2023-04-04T04:19:47.139Z,102905.97
2023-04-04T04:24:49.082Z,102901.78
2023-04-04T04:29:50.872Z,102898.19
2023-04-04T04:34:53.011Z,102904.81
2023-04-04T04:40:02.036Z,102903.41
2023-04-04T04:45:12.210Z,102904.81
2023-04-04T04:50:18.372Z,102918.00
2023-04-04T04:55:23.619Z,102911.00
2023-04-04T05:00:37.961Z,102912.94
2023-04-04T05:05:45.206Z,102922.50
2023-04-04T05:10:50.814Z,102926.88
2023-04-04T05:15:53.866Z,102930.25
2023-04-04T05:20:56.426Z,102929.38
2023-04-04T05:26:01.413Z,102933.41
2023-04-04T05:31:07.906Z,102921.72
2023-04-04T05:36:13.068Z,102923.34
2023-04-04T05:41:24.904Z,102924.59
2023-04-04T05:46:31.380Z,102921.88
2023-04-04T05:51:33.146Z,102929.69
2023-04-04T05:56:47.602Z,102924.94
2023-04-04T06:02:09.861Z,102917.38
2023-04-04T06:07:16.260Z,102919.00
2023-04-04T06:12:18.043Z,102917.41
2023-04-04T06:17:21.103Z,102915.09
2023-04-04T06:22:22.821Z,102915.63
2023-04-04T06:27:27.365Z,102909.50
2023-04-04T06:32:32.192Z,102907.94
2023-04-04T06:37:34.817Z,102919.25
2023-04-04T06:42:52.387Z,102919.69
2023-04-04T06:47:56.566Z,102930.59
2023-04-04T06:52:58.516Z,102934.13
2023-04-04T06:58:00.302Z,102940.94
2023-04-04T07:03:02.914Z,102940.16
2023-04-04T07:08:06.789Z,102933.50
2023-04-04T07:13:08.536Z,102937.44
2023-04-04T07:18:10.298Z,102949.78
2023-04-04T07:23:12.398Z,102948.03
2023-04-04T07:28:14.058Z,102955.97
2023-04-04T07:33:15.788Z,102951.28
2023-04-04T07:38:17.701Z,102943.03
2023-04-04T07:43:19.446Z,102947.75
2023-04-04T07:48:22.900Z,102942.19
2023-04-04T07:53:24.772Z,102931.16
2023-04-04T07:58:26.404Z,102931.53
2023-04-04T08:03:28.358Z,102923.44
2023-04-04T08:08:30.096Z,102916.34
2023-04-04T08:13:31.920Z,102925.13
2023-04-04T08:18:33.596Z,102912.47
2023-04-04T08:23:35.340Z,102913.09
2023-04-04T08:28:37.040Z,102910.81
2023-04-04T08:33:47.332Z,102903.44
2023-04-04T08:38:49.637Z,102899.81
2023-04-04T08:43:54.832Z,102900.91
2023-04-04T08:48:57.585Z,102904.22
2023-04-04T08:54:00.660Z,102898.53
2023-04-04T08:59:03.443Z,102902.00
2023-04-04T09:04:06.463Z,102900.72
2023-04-04T09:09:09.204Z,102910.13
2023-04-04T09:14:10.935Z,102898.38
2023-04-04T09:19:12.924Z,102904.66
2023-04-04T09:24:15.985Z,102899.13
2023-04-04T09:29:19.799Z,102897.84
2023-04-04T09:34:21.659Z,102896.78
2023-04-04T09:39:23.774Z,102893.72
2023-04-04T09:44:26.075Z,102893.16
2023-04-04T09:49:27.909Z,102889.78
2023-04-04T09:54:31.423Z,102889.41
2023-04-04T09:59:34.367Z,102890.19
2023-04-04T10:04:36.606Z,102881.81
2023-04-04T10:09:38.916Z,102887.31
2023-04-04T10:14:41.002Z,102882.75
2023-04-04T10:19:44.236Z,102883.59
2023-04-04T10:24:46.267Z,102880.31
2023-04-04T10:29:47.996Z,102885.50
2023-04-04T10:35:00.765Z,102879.28
2023-04-04T10:40:10.395Z,102876.88
2023-04-04T10:45:21.117Z,102865.94
2023-04-04T10:50:24.077Z,102853.41
2023-04-04T10:55:26.549Z,102849.78
2023-04-04T11:00:28.371Z,102834.50
2023-04-04T11:05:37.607Z,102827.66
2023-04-04T11:10:44.634Z,102843.88
2023-04-04T11:15:57.733Z,102829.81
2023-04-04T11:21:05.571Z,102828.31
2023-04-04T11:26:08.498Z,102826.19
2023-04-04T11:31:20.494Z,102819.28
2023-04-04T11:36:41.713Z,102818.28
2023-04-04T11:41:45.252Z,102819.94
2023-04-04T11:46:51.266Z,102814.66
2023-04-04T11:51:52.952Z,102809.56
2023-04-04T11:56:54.763Z,102799.06
2023-04-04T12:01:57.265Z,102794.25
2023-04-04T12:06:59.152Z,102784.34
2023-04-04T12:12:01.118Z,102793.53
2023-04-04T12:17:03.102Z,102785.47
2023-04-04T12:22:05.432Z,102786.56
2023-04-04T12:27:08.254Z,102778.41
2023-04-04T21:43:05.242Z,102491.41
2023-04-04T22:18:09.289Z,102493.94
2023-04-04T22:23:47.917Z,102495.69
2023-04-04T22:30:15.365Z,102487.97
2023-04-04T22:36:36.239Z,102479.28
2023-04-04T22:59:38.693Z,102467.78
2023-04-04T23:11:53.900Z,102461.47
2023-04-04T23:23:05.842Z,102459.81
2023-04-04T23:28:43.962Z,102457.09
2023-04-04T23:46:09.194Z,102449.13
